sensor_id;sensor_type;location;lat;lon;timestamp;P1;durP1;ratioP1;P2;durP2;ratioP2
48945;SDS011;34999;50.940;3.998;2023-02-26T00:05:51;17.13;;;5.10;;
48945;SDS011;34999;50.940;3.998;2023-02-26T00:08:20;16.17;;;5.20;;
48945;SDS011;34999;50.940;3.998;2023-02-26T00:10:48;10.47;;;4.33;;
48945;SDS011;34999;50.940;3.998;2023-02-26T00:13:20;10.27;;;4.53;;
48945;SDS011;34999;50.940;3.998;2023-02-26T00:15:49;10.70;;;4.27;;
48945;SDS011;34999;50.940;3.998;2023-02-26T00:18:23;8.93;;;4.20;;
48945;SDS011;34999;50.940;3.998;2023-02-26T00:20:53;12.40;;;4.57;;
48945;SDS011;34999;50.940;3.998;2023-02-26T00:23:22;12.83;;;4.50;;
48945;SDS011;34999;50.940;3.998;2023-02-26T00:25:51;8.30;;;4.73;;
48945;SDS011;34999;50.940;3.998;2023-02-26T00:28:19;13.07;;;4.27;;
48945;SDS011;34999;50.940;3.998;2023-02-26T00:34:53;11.90;;;4.60;;
48945;SDS011;34999;50.940;3.998;2023-02-26T00:37:27;8.50;;;4.20;;
48945;SDS011;34999;50.940;3.998;2023-02-26T00:40:12;11.53;;;4.23;;
48945;SDS011;34999;50.940;3.998;2023-02-26T00:42:47;11.87;;;4.77;;
48945;SDS011;34999;50.940;3.998;2023-02-26T00:45:16;12.17;;;4.37;;
48945;SDS011;34999;50.940;3.998;2023-02-26T00:47:46;11.60;;;4.50;;
48945;SDS011;34999;50.940;3.998;2023-02-26T00:50:19;14.17;;;4.70;;
48945;SDS011;34999;50.940;3.998;2023-02-26T00:53:00;9.97;;;4.43;;
48945;SDS011;34999;50.940;3.998;2023-02-26T00:55:34;9.43;;;4.57;;
48945;SDS011;34999;50.940;3.998;2023-02-26T00:58:03;15.00;;;4.37;;
48945;SDS011;34999;50.940;3.998;2023-02-26T01:00:31;10.77;;;4.37;;
48945;SDS011;34999;50.940;3.998;2023-02-26T01:03:00;12.30;;;4.40;;
48945;SDS011;34999;50.940;3.998;2023-02-26T01:05:29;7.90;;;4.47;;
48945;SDS011;34999;50.940;3.998;2023-02-26T01:08:01;13.60;;;4.43;;
48945;SDS011;34999;50.940;3.998;2023-02-26T01:10:36;12.00;;;4.07;;
48945;SDS011;34999;50.940;3.998;2023-02-26T01:13:05;11.53;;;4.63;;
48945;SDS011;34999;50.940;3.998;2023-02-26T01:15:37;8.57;;;4.23;;
48945;SDS011;34999;50.940;3.998;2023-02-26T01:18:11;9.77;;;4.07;;
48945;SDS011;34999;50.940;3.998;2023-02-26T01:20:43;7.37;;;4.10;;
48945;SDS011;34999;50.940;3.998;2023-02-26T01:23:16;13.53;;;4.30;;
48945;SDS011;34999;50.940;3.998;2023-02-26T01:25:50;11.60;;;4.17;;
48945;SDS011;34999;50.940;3.998;2023-02-26T01:28:21;11.73;;;4.33;;
48945;SDS011;34999;50.940;3.998;2023-02-26T01:30:49;12.63;;;5.10;;
48945;SDS011;34999;50.940;3.998;2023-02-26T01:33:23;12.10;;;4.80;;
48945;SDS011;34999;50.940;3.998;2023-02-26T01:35:57;11.00;;;3.90;;
48945;SDS011;34999;50.940;3.998;2023-02-26T01:38:33;10.60;;;4.07;;
48945;SDS011;34999;50.940;3.998;2023-02-26T01:44:09;11.00;;;3.80;;
48945;SDS011;34999;50.940;3.998;2023-02-26T01:46:49;13.60;;;3.83;;
48945;SDS011;34999;50.940;3.998;2023-02-26T01:49:27;8.53;;;3.80;;
48945;SDS011;34999;50.940;3.998;2023-02-26T01:51:57;6.33;;;3.90;;
48945;SDS011;34999;50.940;3.998;2023-02-26T01:54:29;11.13;;;4.17;;
48945;SDS011;34999;50.940;3.998;2023-02-26T01:56:59;8.87;;;4.07;;
48945;SDS011;34999;50.940;3.998;2023-02-26T01:59:31;13.40;;;4.13;;
48945;SDS011;34999;50.940;3.998;2023-02-26T02:02:01;6.30;;;4.13;;
48945;SDS011;34999;50.940;3.998;2023-02-26T02:04:31;10.63;;;4.10;;
48945;SDS011;34999;50.940;3.998;2023-02-26T02:07:00;11.10;;;4.03;;
48945;SDS011;34999;50.940;3.998;2023-02-26T02:09:31;7.33;;;3.90;;
48945;SDS011;34999;50.940;3.998;2023-02-26T02:14:54;11.10;;;3.77;;
48945;SDS011;34999;50.940;3.998;2023-02-26T02:17:33;15.63;;;4.23;;
48945;SDS011;34999;50.940;3.998;2023-02-26T02:20:40;18.13;;;3.93;;
48945;SDS011;34999;50.940;3.998;2023-02-26T02:23:25;11.23;;;3.97;;
48945;SDS011;34999;50.940;3.998;2023-02-26T02:26:11;11.57;;;4.13;;
48945;SDS011;34999;50.940;3.998;2023-02-26T02:29:08;10.47;;;3.23;;
48945;SDS011;34999;50.940;3.998;2023-02-26T02:31:56;9.40;;;4.20;;
48945;SDS011;34999;50.940;3.998;2023-02-26T02:34:28;9.87;;;3.50;;
48945;SDS011;34999;50.940;3.998;2023-02-26T02:37:04;9.83;;;4.03;;
48945;SDS011;34999;50.940;3.998;2023-02-26T02:39:39;7.53;;;3.60;;
48945;SDS011;34999;50.940;3.998;2023-02-26T02:42:15;11.30;;;4.03;;
48945;SDS011;34999;50.940;3.998;2023-02-26T02:44:51;13.90;;;3.83;;
48945;SDS011;34999;50.940;3.998;2023-02-26T02:47:24;8.67;;;4.17;;
48945;SDS011;34999;50.940;3.998;2023-02-26T02:49:57;9.90;;;4.13;;
48945;SDS011;34999;50.940;3.998;2023-02-26T02:52:30;7.90;;;3.90;;
48945;SDS011;34999;50.940;3.998;2023-02-26T02:55:04;11.77;;;3.70;;
48945;SDS011;34999;50.940;3.998;2023-02-26T02:57:36;12.27;;;4.10;;
48945;SDS011;34999;50.940;3.998;2023-02-26T03:00:11;11.73;;;4.00;;
48945;SDS011;34999;50.940;3.998;2023-02-26T03:02:45;5.03;;;3.60;;
48945;SDS011;34999;50.940;3.998;2023-02-26T03:05:17;12.67;;;3.70;;
48945;SDS011;34999;50.940;3.998;2023-02-26T03:07:46;9.37;;;3.97;;
48945;SDS011;34999;50.940;3.998;2023-02-26T03:10:19;10.77;;;3.80;;
48945;SDS011;34999;50.940;3.998;2023-02-26T03:12:48;14.60;;;3.83;;
48945;SDS011;34999;50.940;3.998;2023-02-26T03:15:17;8.60;;;3.80;;
48945;SDS011;34999;50.940;3.998;2023-02-26T03:17:58;6.87;;;4.20;;
48945;SDS011;34999;50.940;3.998;2023-02-26T03:20:33;12.73;;;4.07;;
48945;SDS011;34999;50.940;3.998;2023-02-26T03:23:20;8.43;;;3.90;;
48945;SDS011;34999;50.940;3.998;2023-02-26T03:25:52;7.73;;;4.00;;
48945;SDS011;34999;50.940;3.998;2023-02-26T03:28:27;5.40;;;3.87;;
48945;SDS011;34999;50.940;3.998;2023-02-26T03:30:59;13.47;;;3.73;;
48945;SDS011;34999;50.940;3.998;2023-02-26T03:33:38;10.40;;;3.80;;
48945;SDS011;34999;50.940;3.998;2023-02-26T03:36:15;8.27;;;3.50;;
48945;SDS011;34999;50.940;3.998;2023-02-26T03:38:49;6.40;;;3.87;;
48945;SDS011;34999;50.940;3.998;2023-02-26T03:41:22;6.23;;;3.77;;
48945;SDS011;34999;50.940;3.998;2023-02-26T03:43:57;7.20;;;3.63;;
48945;SDS011;34999;50.940;3.998;2023-02-26T03:46:30;7.80;;;4.27;;
48945;SDS011;34999;50.940;3.998;2023-02-26T03:49:03;9.73;;;3.87;;
48945;SDS011;34999;50.940;3.998;2023-02-26T03:51:37;11.67;;;3.77;;
48945;SDS011;34999;50.940;3.998;2023-02-26T03:54:08;9.50;;;4.10;;
48945;SDS011;34999;50.940;3.998;2023-02-26T03:56:40;8.03;;;3.60;;
48945;SDS011;34999;50.940;3.998;2023-02-26T03:59:12;15.70;;;4.80;;
48945;SDS011;34999;50.940;3.998;2023-02-26T04:01:44;13.43;;;3.00;;
48945;SDS011;34999;50.940;3.998;2023-02-26T04:04:20;9.43;;;3.67;;
48945;SDS011;34999;50.940;3.998;2023-02-26T04:06:53;8.53;;;3.40;;
48945;SDS011;34999;50.940;3.998;2023-02-26T04:09:24;5.73;;;3.40;;
48945;SDS011;34999;50.940;3.998;2023-02-26T04:11:54;5.33;;;3.30;;
48945;SDS011;34999;50.940;3.998;2023-02-26T04:14:23;8.70;;;3.50;;
48945;SDS011;34999;50.940;3.998;2023-02-26T04:16:52;10.67;;;3.50;;
48945;SDS011;34999;50.940;3.998;2023-02-26T04:19:21;15.70;;;3.60;;
48945;SDS011;34999;50.940;3.998;2023-02-26T04:21:49;8.20;;;3.03;;
48945;SDS011;34999;50.940;3.998;2023-02-26T04:24:18;5.83;;;2.60;;
48945;SDS011;34999;50.940;3.998;2023-02-26T04:26:46;8.80;;;2.93;;
48945;SDS011;34999;50.940;3.998;2023-02-26T04:29:14;11.50;;;2.97;;
48945;SDS011;34999;50.940;3.998;2023-02-26T04:31:45;4.10;;;2.90;;
48945;SDS011;34999;50.940;3.998;2023-02-26T04:34:14;4.33;;;2.50;;
48945;SDS011;34999;50.940;3.998;2023-02-26T04:36:44;6.90;;;2.90;;
48945;SDS011;34999;50.940;3.998;2023-02-26T04:39:12;6.07;;;3.00;;
48945;SDS011;34999;50.940;3.998;2023-02-26T04:41:40;9.10;;;2.80;;
48945;SDS011;34999;50.940;3.998;2023-02-26T04:44:09;3.90;;;2.10;;
48945;SDS011;34999;50.940;3.998;2023-02-26T04:46:37;9.30;;;2.70;;
48945;SDS011;34999;50.940;3.998;2023-02-26T04:49:05;7.90;;;2.50;;
48945;SDS011;34999;50.940;3.998;2023-02-26T04:51:34;3.47;;;2.30;;
48945;SDS011;34999;50.940;3.998;2023-02-26T04:54:03;7.57;;;2.50;;
48945;SDS011;34999;50.940;3.998;2023-02-26T04:56:32;5.80;;;2.27;;
48945;SDS011;34999;50.940;3.998;2023-02-26T04:59:00;7.53;;;2.40;;
48945;SDS011;34999;50.940;3.998;2023-02-26T05:01:28;5.87;;;2.53;;
48945;SDS011;34999;50.940;3.998;2023-02-26T05:03:57;1.90;;;1.80;;
48945;SDS011;34999;50.940;3.998;2023-02-26T05:06:26;6.47;;;2.47;;
48945;SDS011;34999;50.940;3.998;2023-02-26T05:08:57;6.13;;;2.60;;
48945;SDS011;34999;50.940;3.998;2023-02-26T05:15:34;7.03;;;2.40;;
48945;SDS011;34999;50.940;3.998;2023-02-26T05:21:08;11.50;;;2.90;;
48945;SDS011;34999;50.940;3.998;2023-02-26T05:23:36;6.20;;;2.60;;
48945;SDS011;34999;50.940;3.998;2023-02-26T05:26:04;8.67;;;3.10;;
48945;SDS011;34999;50.940;3.998;2023-02-26T05:28:32;5.93;;;2.73;;
48945;SDS011;34999;50.940;3.998;2023-02-26T05:31:03;9.40;;;2.93;;
48945;SDS011;34999;50.940;3.998;2023-02-26T05:33:32;6.17;;;2.90;;
48945;SDS011;34999;50.940;3.998;2023-02-26T05:36:00;8.10;;;3.13;;
48945;SDS011;34999;50.940;3.998;2023-02-26T05:38:29;8.50;;;2.80;;
48945;SDS011;34999;50.940;3.998;2023-02-26T05:40:57;6.10;;;2.80;;
48945;SDS011;34999;50.940;3.998;2023-02-26T05:43:26;5.20;;;2.40;;
48945;SDS011;34999;50.940;3.998;2023-02-26T05:45:54;12.70;;;2.70;;
48945;SDS011;34999;50.940;3.998;2023-02-26T05:48:27;6.53;;;2.20;;
48945;SDS011;34999;50.940;3.998;2023-02-26T05:50:55;9.13;;;2.50;;
48945;SDS011;34999;50.940;3.998;2023-02-26T05:53:23;3.70;;;2.17;;
48945;SDS011;34999;50.940;3.998;2023-02-26T05:55:52;7.87;;;2.33;;
48945;SDS011;34999;50.940;3.998;2023-02-26T05:58:20;7.40;;;2.40;;
48945;SDS011;34999;50.940;3.998;2023-02-26T06:00:49;6.87;;;2.30;;
48945;SDS011;34999;50.940;3.998;2023-02-26T06:03:17;7.23;;;2.33;;
48945;SDS011;34999;50.940;3.998;2023-02-26T06:05:47;7.07;;;2.50;;
48945;SDS011;34999;50.940;3.998;2023-02-26T06:08:15;5.30;;;2.30;;
48945;SDS011;34999;50.940;3.998;2023-02-26T06:10:43;3.33;;;2.33;;
48945;SDS011;34999;50.940;3.998;2023-02-26T06:13:12;9.20;;;2.40;;
48945;SDS011;34999;50.940;3.998;2023-02-26T06:15:40;4.60;;;2.30;;
48945;SDS011;34999;50.940;3.998;2023-02-26T06:18:08;5.97;;;2.40;;
48945;SDS011;34999;50.940;3.998;2023-02-26T06:20:36;9.17;;;2.40;;
48945;SDS011;34999;50.940;3.998;2023-02-26T06:23:06;4.27;;;2.50;;
48945;SDS011;34999;50.940;3.998;2023-02-26T06:25:34;8.80;;;2.67;;
48945;SDS011;34999;50.940;3.998;2023-02-26T06:28:02;9.10;;;2.50;;
48945;SDS011;34999;50.940;3.998;2023-02-26T06:30:31;2.40;;;2.20;;
48945;SDS011;34999;50.940;3.998;2023-02-26T06:32:59;7.20;;;2.23;;
48945;SDS011;34999;50.940;3.998;2023-02-26T06:35:27;4.10;;;1.93;;
48945;SDS011;34999;50.940;3.998;2023-02-26T06:37:56;5.33;;;2.10;;
48945;SDS011;34999;50.940;3.998;2023-02-26T06:40:25;5.27;;;2.47;;
48945;SDS011;34999;50.940;3.998;2023-02-26T06:42:54;8.03;;;2.50;;
48945;SDS011;34999;50.940;3.998;2023-02-26T06:45:22;4.67;;;2.00;;
48945;SDS011;34999;50.940;3.998;2023-02-26T06:47:51;2.30;;;2.10;;
48945;SDS011;34999;50.940;3.998;2023-02-26T06:50:20;4.13;;;1.80;;
48945;SDS011;34999;50.940;3.998;2023-02-26T06:52:48;7.30;;;2.17;;
48945;SDS011;34999;50.940;3.998;2023-02-26T06:55:17;4.43;;;1.83;;
48945;SDS011;34999;50.940;3.998;2023-02-26T06:57:48;5.10;;;2.10;;
48945;SDS011;34999;50.940;3.998;2023-02-26T07:00:16;7.23;;;2.20;;
48945;SDS011;34999;50.940;3.998;2023-02-26T07:02:45;7.43;;;2.10;;
48945;SDS011;34999;50.940;3.998;2023-02-26T07:05:14;4.67;;;1.97;;
48945;SDS011;34999;50.940;3.998;2023-02-26T07:07:42;8.63;;;2.23;;
48945;SDS011;34999;50.940;3.998;2023-02-26T07:10:11;3.80;;;2.10;;
48945;SDS011;34999;50.940;3.998;2023-02-26T07:12:39;4.83;;;2.40;;
48945;SDS011;34999;50.940;3.998;2023-02-26T07:15:09;4.83;;;2.70;;
48945;SDS011;34999;50.940;3.998;2023-02-26T07:17:38;8.87;;;2.83;;
48945;SDS011;34999;50.940;3.998;2023-02-26T07:20:07;6.40;;;3.00;;
48945;SDS011;34999;50.940;3.998;2023-02-26T07:22:37;6.10;;;2.60;;
48945;SDS011;34999;50.940;3.998;2023-02-26T07:25:05;10.40;;;3.70;;
48945;SDS011;34999;50.940;3.998;2023-02-26T07:27:34;5.90;;;3.00;;
48945;SDS011;34999;50.940;3.998;2023-02-26T07:30:02;7.20;;;2.57;;
48945;SDS011;34999;50.940;3.998;2023-02-26T07:32:33;2.90;;;2.30;;
48945;SDS011;34999;50.940;3.998;2023-02-26T07:35:02;2.40;;;2.20;;
48945;SDS011;34999;50.940;3.998;2023-02-26T07:37:31;7.23;;;2.80;;
48945;SDS011;34999;50.940;3.998;2023-02-26T07:39:59;5.20;;;2.40;;
48945;SDS011;34999;50.940;3.998;2023-02-26T07:42:27;6.80;;;2.53;;
48945;SDS011;34999;50.940;3.998;2023-02-26T07:44:55;7.90;;;2.63;;
48945;SDS011;34999;50.940;3.998;2023-02-26T07:50:31;5.47;;;2.43;;
48945;SDS011;34999;50.940;3.998;2023-02-26T07:52:59;9.47;;;3.40;;
48945;SDS011;34999;50.940;3.998;2023-02-26T07:55:27;10.43;;;3.77;;
48945;SDS011;34999;50.940;3.998;2023-02-26T07:57:55;7.30;;;3.07;;
48945;SDS011;34999;50.940;3.998;2023-02-26T08:00:24;3.73;;;2.77;;
48945;SDS011;34999;50.940;3.998;2023-02-26T08:02:52;9.03;;;3.40;;
48945;SDS011;34999;50.940;3.998;2023-02-26T08:05:20;5.30;;;2.20;;
48945;SDS011;34999;50.940;3.998;2023-02-26T08:07:50;4.20;;;2.03;;
48945;SDS011;34999;50.940;3.998;2023-02-26T08:10:18;5.43;;;2.40;;
48945;SDS011;34999;50.940;3.998;2023-02-26T08:12:46;3.87;;;2.43;;
48945;SDS011;34999;50.940;3.998;2023-02-26T08:15:15;8.03;;;2.50;;
48945;SDS011;34999;50.940;3.998;2023-02-26T08:17:43;6.20;;;2.40;;
48945;SDS011;34999;50.940;3.998;2023-02-26T08:20:11;2.40;;;1.87;;
48945;SDS011;34999;50.940;3.998;2023-02-26T08:22:41;4.83;;;1.80;;
48945;SDS011;34999;50.940;3.998;2023-02-26T08:25:10;2.53;;;1.60;;
48945;SDS011;34999;50.940;3.998;2023-02-26T08:31:45;5.37;;;2.10;;
48945;SDS011;34999;50.940;3.998;2023-02-26T08:34:13;3.13;;;1.50;;
48945;SDS011;34999;50.940;3.998;2023-02-26T08:36:42;3.27;;;2.17;;
48945;SDS011;34999;50.940;3.998;2023-02-26T08:39:10;2.73;;;1.77;;
48945;SDS011;34999;50.940;3.998;2023-02-26T08:41:40;3.13;;;1.63;;
48945;SDS011;34999;50.940;3.998;2023-02-26T08:44:08;3.77;;;1.90;;
48945;SDS011;34999;50.940;3.998;2023-02-26T08:46:36;2.60;;;1.80;;
48945;SDS011;34999;50.940;3.998;2023-02-26T08:53:11;5.30;;;1.90;;
48945;SDS011;34999;50.940;3.998;2023-02-26T08:55:40;3.73;;;1.70;;
48945;SDS011;34999;50.940;3.998;2023-02-26T08:58:11;1.90;;;1.70;;
48945;SDS011;34999;50.940;3.998;2023-02-26T09:00:39;4.43;;;2.13;;
48945;SDS011;34999;50.940;3.998;2023-02-26T09:03:08;9.20;;;2.90;;
48945;SDS011;34999;50.940;3.998;2023-02-26T09:05:36;7.63;;;2.53;;
48945;SDS011;34999;50.940;3.998;2023-02-26T09:08:06;4.73;;;1.90;;
48945;SDS011;34999;50.940;3.998;2023-02-26T09:10:35;4.00;;;2.00;;
48945;SDS011;34999;50.940;3.998;2023-02-26T09:13:06;5.43;;;2.00;;
48945;SDS011;34999;50.940;3.998;2023-02-26T09:15:36;2.17;;;1.80;;
48945;SDS011;34999;50.940;3.998;2023-02-26T09:23:40;5.07;;;2.80;;
48945;SDS011;34999;50.940;3.998;2023-02-26T09:26:08;5.23;;;1.87;;
48945;SDS011;34999;50.940;3.998;2023-02-26T09:28:37;3.97;;;1.70;;
48945;SDS011;34999;50.940;3.998;2023-02-26T09:31:06;1.70;;;1.60;;
48945;SDS011;34999;50.940;3.998;2023-02-26T09:33:35;3.17;;;1.70;;
48945;SDS011;34999;50.940;3.998;2023-02-26T09:36:03;2.87;;;1.80;;
48945;SDS011;34999;50.940;3.998;2023-02-26T09:38:32;1.83;;;1.73;;
48945;SDS011;34999;50.940;3.998;2023-02-26T09:41:02;3.73;;;1.50;;
48945;SDS011;34999;50.940;3.998;2023-02-26T09:46:27;1.83;;;1.73;;
48945;SDS011;34999;50.940;3.998;2023-02-26T09:49:06;2.67;;;1.50;;
48945;SDS011;34999;50.940;3.998;2023-02-26T09:51:44;2.27;;;1.80;;
48945;SDS011;34999;50.940;3.998;2023-02-26T09:54:17;3.00;;;1.40;;
48945;SDS011;34999;50.940;3.998;2023-02-26T09:56:47;1.90;;;1.57;;
48945;SDS011;34999;50.940;3.998;2023-02-26T09:59:18;2.00;;;1.60;;
48945;SDS011;34999;50.940;3.998;2023-02-26T10:01:50;4.17;;;1.50;;
48945;SDS011;34999;50.940;3.998;2023-02-26T10:04:25;3.40;;;1.60;;
48945;SDS011;34999;50.940;3.998;2023-02-26T10:07:07;3.37;;;1.50;;
48945;SDS011;34999;50.940;3.998;2023-02-26T10:09:47;4.47;;;1.70;;
48945;SDS011;34999;50.940;3.998;2023-02-26T10:12:25;2.07;;;1.60;;
48945;SDS011;34999;50.940;3.998;2023-02-26T10:14:56;2.47;;;1.50;;
48945;SDS011;34999;50.940;3.998;2023-02-26T10:17:29;2.07;;;1.60;;
48945;SDS011;34999;50.940;3.998;2023-02-26T10:20:03;2.03;;;1.90;;
48945;SDS011;34999;50.940;3.998;2023-02-26T10:22:36;1.50;;;1.50;;
48945;SDS011;34999;50.940;3.998;2023-02-26T10:25:11;1.70;;;1.60;;
48945;SDS011;34999;50.940;3.998;2023-02-26T10:27:47;3.70;;;1.60;;
48945;SDS011;34999;50.940;3.998;2023-02-26T10:30:21;1.90;;;1.80;;
48945;SDS011;34999;50.940;3.998;2023-02-26T10:33:00;2.00;;;1.77;;
48945;SDS011;34999;50.940;3.998;2023-02-26T10:35:39;2.37;;;1.57;;
48945;SDS011;34999;50.940;3.998;2023-02-26T10:38:14;1.70;;;1.60;;
48945;SDS011;34999;50.940;3.998;2023-02-26T10:40:46;4.50;;;2.03;;
48945;SDS011;34999;50.940;3.998;2023-02-26T10:43:18;5.00;;;2.87;;
48945;SDS011;34999;50.940;3.998;2023-02-26T10:45:56;2.87;;;2.10;;
48945;SDS011;34999;50.940;3.998;2023-02-26T10:51:31;1.30;;;1.30;;
48945;SDS011;34999;50.940;3.998;2023-02-26T10:54:03;2.00;;;1.70;;
48945;SDS011;34999;50.940;3.998;2023-02-26T10:56:50;1.70;;;1.53;;
48945;SDS011;34999;50.940;3.998;2023-02-26T10:59:18;1.50;;;1.40;;
48945;SDS011;34999;50.940;3.998;2023-02-26T11:01:46;3.43;;;1.40;;
48945;SDS011;34999;50.940;3.998;2023-02-26T11:04:19;1.70;;;1.60;;
48945;SDS011;34999;50.940;3.998;2023-02-26T11:06:50;1.40;;;1.40;;
48945;SDS011;34999;50.940;3.998;2023-02-26T11:09:23;3.60;;;2.00;;
48945;SDS011;34999;50.940;3.998;2023-02-26T11:11:53;1.70;;;1.53;;
48945;SDS011;34999;50.940;3.998;2023-02-26T11:14:23;1.87;;;1.63;;
48945;SDS011;34999;50.940;3.998;2023-02-26T11:16:56;2.47;;;1.60;;
48945;SDS011;34999;50.940;3.998;2023-02-26T11:19:31;2.63;;;2.27;;
48945;SDS011;34999;50.940;3.998;2023-02-26T11:22:02;1.83;;;1.70;;
48945;SDS011;34999;50.940;3.998;2023-02-26T11:24:35;1.50;;;1.50;;
48945;SDS011;34999;50.940;3.998;2023-02-26T11:27:07;1.80;;;1.60;;
48945;SDS011;34999;50.940;3.998;2023-02-26T11:29:40;2.83;;;1.60;;
48945;SDS011;34999;50.940;3.998;2023-02-26T11:32:12;3.50;;;1.50;;
48945;SDS011;34999;50.940;3.998;2023-02-26T11:34:48;1.87;;;1.63;;
48945;SDS011;34999;50.940;3.998;2023-02-26T11:37:18;1.23;;;1.23;;
48945;SDS011;34999;50.940;3.998;2023-02-26T11:39:49;2.13;;;1.63;;
48945;SDS011;34999;50.940;3.998;2023-02-26T11:42:24;5.47;;;2.30;;
48945;SDS011;34999;50.940;3.998;2023-02-26T11:44:54;2.40;;;1.70;;
48945;SDS011;34999;50.940;3.998;2023-02-26T11:47:25;1.60;;;1.40;;
48945;SDS011;34999;50.940;3.998;2023-02-26T11:50:02;1.40;;;1.30;;
48945;SDS011;34999;50.940;3.998;2023-02-26T11:52:39;1.67;;;1.57;;
48945;SDS011;34999;50.940;3.998;2023-02-26T11:55:17;2.30;;;1.77;;
48945;SDS011;34999;50.940;3.998;2023-02-26T11:57:49;2.73;;;1.60;;
48945;SDS011;34999;50.940;3.998;2023-02-26T12:00:22;1.80;;;1.70;;
48945;SDS011;34999;50.940;3.998;2023-02-26T12:02:55;1.40;;;1.40;;
48945;SDS011;34999;50.940;3.998;2023-02-26T12:05:28;2.63;;;1.80;;
48945;SDS011;34999;50.940;3.998;2023-02-26T12:07:57;1.63;;;1.60;;
48945;SDS011;34999;50.940;3.998;2023-02-26T12:10:27;2.00;;;1.90;;
48945;SDS011;34999;50.940;3.998;2023-02-26T12:13:03;2.83;;;1.50;;
48945;SDS011;34999;50.940;3.998;2023-02-26T12:15:38;1.57;;;1.47;;
48945;SDS011;34999;50.940;3.998;2023-02-26T12:18:25;1.60;;;1.50;;
48945;SDS011;34999;50.940;3.998;2023-02-26T12:21:10;2.20;;;1.93;;
48945;SDS011;34999;50.940;3.998;2023-02-26T12:23:55;1.80;;;1.70;;
48945;SDS011;34999;50.940;3.998;2023-02-26T12:26:43;1.77;;;1.60;;
48945;SDS011;34999;50.940;3.998;2023-02-26T12:29:24;2.10;;;1.70;;
48945;SDS011;34999;50.940;3.998;2023-02-26T12:32:14;2.10;;;1.90;;
48945;SDS011;34999;50.940;3.998;2023-02-26T12:38:06;6.53;;;1.70;;
48945;SDS011;34999;50.940;3.998;2023-02-26T12:40:43;2.27;;;1.60;;
48945;SDS011;34999;50.940;3.998;2023-02-26T12:43:26;2.07;;;1.90;;
48945;SDS011;34999;50.940;3.998;2023-02-26T12:46:02;2.13;;;1.50;;
48945;SDS011;34999;50.940;3.998;2023-02-26T12:52:09;2.60;;;1.83;;
48945;SDS011;34999;50.940;3.998;2023-02-26T12:54:52;1.60;;;1.50;;
48945;SDS011;34999;50.940;3.998;2023-02-26T12:57:43;2.50;;;1.80;;
48945;SDS011;34999;50.940;3.998;2023-02-26T13:00:22;2.10;;;1.90;;
48945;SDS011;34999;50.940;3.998;2023-02-26T13:03:11;1.70;;;1.60;;
48945;SDS011;34999;50.940;3.998;2023-02-26T13:06:01;1.70;;;1.60;;
48945;SDS011;34999;50.940;3.998;2023-02-26T13:08:49;3.40;;;1.77;;
48945;SDS011;34999;50.940;3.998;2023-02-26T13:11:28;1.83;;;1.70;;
48945;SDS011;34999;50.940;3.998;2023-02-26T13:14:20;1.60;;;1.43;;
48945;SDS011;34999;50.940;3.998;2023-02-26T13:17:00;2.70;;;1.50;;
48945;SDS011;34999;50.940;3.998;2023-02-26T13:19:35;1.90;;;1.80;;
48945;SDS011;34999;50.940;3.998;2023-02-26T13:22:13;2.73;;;1.80;;
48945;SDS011;34999;50.940;3.998;2023-02-26T13:24:49;4.10;;;1.60;;
48945;SDS011;34999;50.940;3.998;2023-02-26T13:27:23;2.70;;;1.77;;
48945;SDS011;34999;50.940;3.998;2023-02-26T13:29:58;3.60;;;1.50;;
48945;SDS011;34999;50.940;3.998;2023-02-26T13:32:41;2.07;;;1.50;;
48945;SDS011;34999;50.940;3.998;2023-02-26T13:35:16;2.47;;;1.90;;
48945;SDS011;34999;50.940;3.998;2023-02-26T13:37:48;3.80;;;1.87;;
48945;SDS011;34999;50.940;3.998;2023-02-26T13:40:28;3.33;;;2.13;;
48945;SDS011;34999;50.940;3.998;2023-02-26T13:43:23;2.07;;;1.97;;
48945;SDS011;34999;50.940;3.998;2023-02-26T13:46:10;2.40;;;2.20;;
48945;SDS011;34999;50.940;3.998;2023-02-26T13:48:50;2.53;;;1.80;;
48945;SDS011;34999;50.940;3.998;2023-02-26T13:51:30;2.10;;;1.77;;
48945;SDS011;34999;50.940;3.998;2023-02-26T13:54:02;1.70;;;1.60;;
48945;SDS011;34999;50.940;3.998;2023-02-26T13:56:42;1.60;;;1.60;;
48945;SDS011;34999;50.940;3.998;2023-02-26T13:59:36;1.90;;;1.80;;
48945;SDS011;34999;50.940;3.998;2023-02-26T14:08:24;2.83;;;1.40;;
48945;SDS011;34999;50.940;3.998;2023-02-26T14:11:26;1.73;;;1.50;;
48945;SDS011;34999;50.940;3.998;2023-02-26T14:14:13;2.10;;;2.00;;
48945;SDS011;34999;50.940;3.998;2023-02-26T14:16:54;3.10;;;1.80;;
48945;SDS011;34999;50.940;3.998;2023-02-26T14:22:41;5.17;;;1.70;;
48945;SDS011;34999;50.940;3.998;2023-02-26T14:25:14;3.20;;;2.20;;
48945;SDS011;34999;50.940;3.998;2023-02-26T14:27:48;6.97;;;1.83;;
48945;SDS011;34999;50.940;3.998;2023-02-26T14:30:26;1.90;;;1.80;;
48945;SDS011;34999;50.940;3.998;2023-02-26T14:33:07;4.20;;;2.00;;
48945;SDS011;34999;50.940;3.998;2023-02-26T14:35:43;1.63;;;1.60;;
48945;SDS011;34999;50.940;3.998;2023-02-26T14:38:17;2.47;;;2.27;;
48945;SDS011;34999;50.940;3.998;2023-02-26T14:40:52;3.47;;;2.30;;
48945;SDS011;34999;50.940;3.998;2023-02-26T14:43:32;3.40;;;1.70;;
48945;SDS011;34999;50.940;3.998;2023-02-26T14:46:04;4.27;;;1.70;;
48945;SDS011;34999;50.940;3.998;2023-02-26T14:48:35;6.10;;;1.90;;
48945;SDS011;34999;50.940;3.998;2023-02-26T14:51:13;2.07;;;1.97;;
48945;SDS011;34999;50.940;3.998;2023-02-26T14:57:01;2.00;;;1.90;;
48945;SDS011;34999;50.940;3.998;2023-02-26T15:02:44;2.63;;;2.43;;
48945;SDS011;34999;50.940;3.998;2023-02-26T15:05:43;2.00;;;1.70;;
48945;SDS011;34999;50.940;3.998;2023-02-26T15:08:35;2.17;;;1.90;;
48945;SDS011;34999;50.940;3.998;2023-02-26T15:11:17;2.93;;;1.90;;
48945;SDS011;34999;50.940;3.998;2023-02-26T15:14:26;1.90;;;1.70;;
48945;SDS011;34999;50.940;3.998;2023-02-26T15:17:09;2.17;;;1.87;;
48945;SDS011;34999;50.940;3.998;2023-02-26T15:19:51;2.53;;;2.20;;
48945;SDS011;34999;50.940;3.998;2023-02-26T15:22:36;2.90;;;1.80;;
48945;SDS011;34999;50.940;3.998;2023-02-26T15:25:17;2.93;;;1.83;;
48945;SDS011;34999;50.940;3.998;2023-02-26T15:27:56;1.80;;;1.70;;
48945;SDS011;34999;50.940;3.998;2023-02-26T15:30:25;2.20;;;2.00;;
48945;SDS011;34999;50.940;3.998;2023-02-26T15:32:56;2.23;;;2.00;;
48945;SDS011;34999;50.940;3.998;2023-02-26T15:35:26;2.20;;;2.10;;
48945;SDS011;34999;50.940;3.998;2023-02-26T15:37:58;4.80;;;1.70;;
48945;SDS011;34999;50.940;3.998;2023-02-26T15:40:30;2.80;;;2.10;;
48945;SDS011;34999;50.940;3.998;2023-02-26T15:43:00;2.27;;;1.90;;
48945;SDS011;34999;50.940;3.998;2023-02-26T15:45:30;4.93;;;1.80;;
48945;SDS011;34999;50.940;3.998;2023-02-26T15:48:03;2.20;;;1.70;;
48945;SDS011;34999;50.940;3.998;2023-02-26T15:50:35;2.17;;;2.07;;
48945;SDS011;34999;50.940;3.998;2023-02-26T15:53:10;3.07;;;2.70;;
48945;SDS011;34999;50.940;3.998;2023-02-26T15:55:46;4.97;;;2.00;;
48945;SDS011;34999;50.940;3.998;2023-02-26T15:58:28;3.90;;;3.40;;
48945;SDS011;34999;50.940;3.998;2023-02-26T16:01:03;5.03;;;2.70;;
48945;SDS011;34999;50.940;3.998;2023-02-26T16:03:33;2.00;;;1.80;;
48945;SDS011;34999;50.940;3.998;2023-02-26T16:06:04;1.70;;;1.60;;
48945;SDS011;34999;50.940;3.998;2023-02-26T16:08:38;2.03;;;1.90;;
48945;SDS011;34999;50.940;3.998;2023-02-26T16:11:07;4.23;;;1.80;;
48945;SDS011;34999;50.940;3.998;2023-02-26T16:13:37;2.20;;;2.10;;
48945;SDS011;34999;50.940;3.998;2023-02-26T16:16:11;3.20;;;2.10;;
48945;SDS011;34999;50.940;3.998;2023-02-26T16:18:42;3.23;;;2.10;;
48945;SDS011;34999;50.940;3.998;2023-02-26T16:21:15;1.80;;;1.60;;
48945;SDS011;34999;50.940;3.998;2023-02-26T16:23:50;2.10;;;2.00;;
48945;SDS011;34999;50.940;3.998;2023-02-26T16:26:22;2.10;;;1.80;;
48945;SDS011;34999;50.940;3.998;2023-02-26T16:28:56;2.97;;;2.00;;